Time;durP1;ratioP1;P1;durP2;ratioP2;P2;SDS_P1;SDS_P2;PMS_P1;PMS_P2;Temp;Humidity;BMP_temperature;BMP_pressure;BME280_temperature;BME280_humidity;BME280_pressure;Samples;Min_cycle;Max_cycle;Signal;HPM_P1;HPM_P2
2022/06/10 00:00:52;;;;;;;1.10;1.00;;;18.80;90.70;;;;;;6304064;28;20534;-62
2022/06/10 00:03:56;;;;;;;1.00;1.00;;;18.70;90.60;;;;;;6303427;28;20234;-62
2022/06/10 00:07:00;;;;;;;2.73;1.27;;;18.70;90.70;;;;;;6303640;28;20237;-62
2022/06/10 00:10:04;;;;;;;1.60;1.50;;;18.70;90.30;;;;;;6302877;28;20242;-63
2022/06/10 00:13:08;;;;;;;1.70;1.60;;;18.70;90.50;;;;;;6303536;28;20241;-62
2022/06/10 00:16:11;;;;;;;1.67;1.57;;;18.60;90.70;;;;;;6294617;28;20942;-63
2022/06/10 00:19:14;;;;;;;1.70;1.60;;;18.60;91.00;;;;;;6303052;28;20288;-62
2022/06/10 00:22:19;;;;;;;1.47;1.37;;;18.60;90.70;;;;;;6303197;28;20372;-62
2022/06/10 00:25:23;;;;;;;2.00;1.70;;;18.60;90.90;;;;;;6303084;28;20471;-62
2022/06/10 00:28:26;;;;;;;1.93;1.43;;;18.60;91.10;;;;;;6303421;28;20223;-62
2022/06/10 00:31:29;;;;;;;3.40;1.80;;;18.70;90.80;;;;;;6303049;28;20242;-63
2022/06/10 00:34:35;;;;;;;1.67;1.57;;;18.70;90.50;;;;;;6303324;28;20606;-63
2022/06/10 00:37:39;;;;;;;2.10;1.77;;;18.60;91.00;;;;;;6302638;28;20469;-63
2022/06/10 00:40:47;;;;;;;1.77;1.67;;;18.60;91.20;;;;;;6302862;28;20230;-63
2022/06/10 00:43:51;;;;;;;2.40;1.50;;;18.50;90.70;;;;;;6302371;28;20543;-63
2022/06/10 00:46:54;;;;;;;1.50;1.40;;;18.50;91.00;;;;;;6302653;28;20461;-63
2022/06/10 00:50:01;;;;;;;2.30;2.10;;;18.50;90.90;;;;;;6302789;28;20488;-63
2022/06/10 00:53:08;;;;;;;2.80;2.10;;;18.60;90.50;;;;;;6302081;28;20970;-63
2022/06/10 00:56:17;;;;;;;4.53;2.37;;;18.60;90.70;;;;;;6302405;28;20227;-63
2022/06/10 00:59:23;;;;;;;1.63;1.53;;;18.50;91.00;;;;;;6302421;28;20298;-63
2022/06/10 01:02:30;;;;;;;1.70;1.60;;;18.60;91.20;;;;;;6302176;28;20237;-63
2022/06/10 01:05:34;;;;;;;2.33;1.90;;;18.60;91.00;;;;;;6302527;28;20497;-62
2022/06/10 01:08:40;;;;;;;1.50;1.40;;;18.60;90.70;;;;;;6302130;28;20242;-62
2022/06/10 01:12:16;;;;;;;2.37;1.47;;;18.70;90.30;;;;;;6301750;28;20492;-62
2022/06/10 01:15:30;;;;;;;2.20;1.30;;;18.80;90.40;;;;;;6301907;28;20458;-62
2022/06/10 01:18:46;;;;;;;1.70;1.60;;;18.80;90.30;;;;;;6292767;28;20462;-62
2022/06/10 01:22:21;;;;;;;1.40;1.30;;;18.80;90.10;;;;;;6301391;28;20236;-62
2022/06/10 01:25:46;;;;;;;1.57;1.20;;;18.70;90.30;;;;;;6301716;28;20465;-62
2022/06/10 01:29:12;;;;;;;2.00;1.63;;;18.80;90.30;;;;;;6301892;28;20223;-63
2022/06/10 01:32:24;;;;;;;1.33;1.23;;;18.80;90.20;;;;;;6301510;28;20227;-63
2022/06/10 01:35:37;;;;;;;1.27;1.17;;;18.90;90.20;;;;;;6301289;28;20227;-62
2022/06/10 01:38:47;;;;;;;2.00;1.80;;;18.80;90.00;;;;;;6301474;28;20226;-62
2022/06/10 01:41:56;;;;;;;1.30;1.20;;;18.90;90.20;;;;;;6300802;28;20665;-62
2022/06/10 01:45:07;;;;;;;1.73;1.33;;;18.90;90.00;;;;;;6301253;28;20617;-62
2022/06/10 01:48:18;;;;;;;1.43;1.33;;;18.80;89.80;;;;;;6300617;28;20610;-62
2022/06/10 01:51:29;;;;;;;1.30;1.20;;;18.80;90.10;;;;;;6301054;28;20672;-62
2022/06/10 01:54:40;;;;;;;1.63;1.10;;;18.80;90.00;;;;;;6300343;28;20235;-62
2022/06/10 01:57:47;;;;;;;1.40;1.30;;;18.80;90.00;;;;;;6301015;28;20228;-62
2022/06/10 02:00:54;;;;;;;1.20;1.10;;;18.80;90.30;;;;;;6300906;28;20246;-62
2022/06/10 02:04:03;;;;;;;1.10;1.10;;;18.80;90.10;;;;;;6300491;28;20243;-62
2022/06/10 02:07:11;;;;;;;1.67;1.20;;;18.80;90.10;;;;;;6300720;28;20233;-62
2022/06/10 02:10:24;;;;;;;1.47;1.37;;;18.80;89.80;;;;;;6300304;28;20231;-62
2022/06/10 02:13:31;;;;;;;1.73;1.13;;;18.80;90.10;;;;;;6300086;28;20233;-62
2022/06/10 02:16:40;;;;;;;1.53;0.90;;;18.80;90.20;;;;;;6299788;28;20238;-62
2022/06/10 02:19:49;;;;;;;1.30;1.20;;;18.70;90.30;;;;;;6300092;28;20241;-62
2022/06/10 02:22:55;;;;;;;1.03;1.03;;;18.70;90.00;;;;;;6296174;28;20235;-62
2022/06/10 02:26:00;;;;;;;1.30;1.17;;;18.80;90.00;;;;;;6299869;28;20231;-62
2022/06/10 02:29:09;;;;;;;1.50;1.00;;;18.80;90.00;;;;;;6300135;28;20238;-62
2022/06/10 02:32:12;;;;;;;1.20;0.80;;;18.80;90.00;;;;;;6299910;28;20235;-62
2022/06/10 02:35:18;;;;;;;0.80;0.80;;;18.80;89.60;;;;;;6299970;28;20250;-62
2022/06/10 02:38:28;;;;;;;1.10;0.90;;;18.80;90.00;;;;;;6300241;28;20227;-62
2022/06/10 02:41:38;;;;;;;0.70;0.70;;;18.90;89.70;;;;;;6299787;28;20230;-62
2022/06/10 02:44:51;;;;;;;1.00;0.80;;;18.90;89.80;;;;;;6299985;28;20235;-62
2022/06/10 02:48:00;;;;;;;0.83;0.80;;;18.80;89.60;;;;;;6299772;28;20474;-62
2022/06/10 02:51:05;;;;;;;1.23;1.13;;;18.90;89.70;;;;;;6299192;28;20462;-61
2022/06/10 02:54:16;;;;;;;0.70;0.70;;;18.90;89.90;;;;;;6299429;28;20687;-61
2022/06/10 02:57:23;;;;;;;0.90;0.90;;;18.90;89.20;;;;;;6299455;28;20227;-61
2022/06/10 03:04:07;;;;;;;1.13;0.70;;;18.90;89.30;;;;;;6299349;28;20227;-61
2022/06/10 03:07:37;;;;;;;0.70;0.70;;;19.00;89.30;;;;;;6299597;28;20227;-61
2022/06/10 03:10:50;;;;;;;1.23;1.13;;;19.00;89.20;;;;;;6298914;28;20227;-61
2022/06/10 03:14:02;;;;;;;1.20;0.90;;;19.00;89.30;;;;;;6298988;28;20227;-61
2022/06/10 03:17:17;;;;;;;2.17;0.80;;;19.00;89.20;;;;;;6299513;28;20242;-61
2022/06/10 03:20:24;;;;;;;1.80;1.13;;;18.90;89.20;;;;;;6299415;28;20239;-61
2022/06/10 03:23:38;;;;;;;2.77;0.87;;;19.00;89.30;;;;;;6299237;28;20227;-62
2022/06/10 03:26:50;;;;;;;1.07;0.73;;;19.00;89.30;;;;;;6301185;28;20227;-62
2022/06/10 03:29:57;;;;;;;1.63;0.73;;;19.00;90.10;;;;;;6303795;28;20313;-62
2022/06/10 03:33:08;;;;;;;1.00;0.73;;;18.90;89.30;;;;;;6328847;28;20226;-62
2022/06/10 03:36:14;;;;;;;2.10;1.03;;;19.00;89.30;;;;;;6329416;28;20596;-62
2022/06/10 03:39:21;;;;;;;1.03;0.90;;;18.90;89.40;;;;;;6329155;28;20245;-62
2022/06/10 03:42:27;;;;;;;1.00;0.90;;;18.90;89.30;;;;;;6328725;28;20230;-62
2022/06/10 03:45:36;;;;;;;2.23;1.00;;;19.00;89.80;;;;;;6328938;28;20279;-62
2022/06/10 03:48:42;;;;;;;0.90;0.80;;;19.00;89.30;;;;;;6329093;28;20539;-62
2022/06/10 03:51:46;;;;;;;0.70;0.70;;;19.00;89.30;;;;;;6328675;28;20245;-62
2022/06/10 03:54:51;;;;;;;1.13;0.80;;;19.00;89.50;;;;;;6328625;28;20593;-62
2022/06/10 03:57:55;;;;;;;0.80;0.80;;;19.00;90.00;;;;;;6328672;28;20243;-62
2022/06/10 04:00:59;;;;;;;0.93;0.77;;;19.00;90.00;;;;;;6329003;28;20233;-62
2022/06/10 04:04:02;;;;;;;2.00;0.83;;;18.90;89.80;;;;;;6328533;28;20245;-61
2022/06/10 04:07:06;;;;;;;1.40;0.97;;;19.00;89.70;;;;;;6328832;28;20226;-61
2022/06/10 04:10:14;;;;;;;0.70;0.70;;;19.00;89.80;;;;;;6328526;28;20226;-62
2022/06/10 04:13:17;;;;;;;1.43;0.90;;;19.00;89.70;;;;;;6328347;28;20231;-62
2022/06/10 04:16:21;;;;;;;1.63;0.70;;;19.00;90.00;;;;;;6328503;28;20238;-62
2022/06/10 04:19:24;;;;;;;3.37;0.90;;;19.00;90.00;;;;;;6328689;28;20226;-62
2022/06/10 04:22:28;;;;;;;0.80;0.80;;;19.00;90.00;;;;;;6328370;28;20234;-61
2022/06/10 04:25:33;;;;;;;2.43;0.83;;;18.90;90.10;;;;;;6328057;28;20563;-61
2022/06/10 04:28:36;;;;;;;1.50;0.63;;;18.90;90.10;;;;;;6327959;28;20234;-61
2022/06/10 04:31:40;;;;;;;1.17;0.90;;;19.00;90.20;;;;;;6318459;28;20230;-61
2022/06/10 04:34:43;;;;;;;1.13;0.93;;;18.90;90.20;;;;;;6327928;28;20245;-61
2022/06/10 04:37:48;;;;;;;1.50;0.83;;;18.90;90.60;;;;;;6327293;28;20230;-61
2022/06/10 04:40:53;;;;;;;1.03;1.00;;;18.90;90.50;;;;;;6327978;28;20567;-61
2022/06/10 04:43:56;;;;;;;0.87;0.87;;;18.90;90.50;;;;;;6327620;28;20687;-61
2022/06/10 04:46:59;;;;;;;2.20;0.70;;;18.80;90.80;;;;;;6327922;28;20241;-61
2022/06/10 04:50:03;;;;;;;1.10;1.00;;;18.80;90.80;;;;;;6327543;28;20234;-61
2022/06/10 04:53:07;;;;;;;1.30;1.00;;;18.80;90.80;;;;;;6327468;28;20250;-61
2022/06/10 04:56:11;;;;;;;0.93;0.70;;;18.80;91.00;;;;;;6327260;28;20222;-61
2022/06/10 04:59:15;;;;;;;0.97;0.80;;;18.70;91.30;;;;;;6327539;28;20245;-61
2022/06/10 05:02:18;;;;;;;1.20;0.97;;;18.80;90.90;;;;;;6326933;28;20465;-61
2022/06/10 05:05:21;;;;;;;1.37;1.00;;;18.70;90.90;;;;;;6325826;28;20810;-62
2022/06/10 05:08:24;;;;;;;1.00;0.90;;;18.80;90.80;;;;;;6325702;28;20227;-61
2022/06/10 05:11:29;;;;;;;2.37;1.13;;;18.80;91.00;;;;;;6326564;28;20226;-61
2022/06/10 05:14:32;;;;;;;1.00;0.90;;;18.80;91.00;;;;;;6326935;28;20233;-61
2022/06/10 05:17:35;;;;;;;1.90;1.30;;;18.90;90.80;;;;;;6327354;28;20286;-61
2022/06/10 05:20:41;;;;;;;1.40;1.30;;;18.90;90.60;;;;;;6326775;28;20241;-62
2022/06/10 05:23:45;;;;;;;0.70;0.70;;;19.00;90.50;;;;;;6326378;28;20559;-62
2022/06/10 05:26:50;;;;;;;1.00;0.90;;;18.90;90.60;;;;;;6326764;28;20487;-61
2022/06/10 05:29:53;;;;;;;0.90;0.90;;;19.00;90.50;;;;;;6326424;28;20227;-61
2022/06/10 05:32:56;;;;;;;1.10;1.00;;;19.00;90.30;;;;;;6326809;28;20229;-61
2022/06/10 05:35:59;;;;;;;1.23;0.80;;;18.90;90.30;;;;;;6321991;28;20799;-61
2022/06/10 05:39:03;;;;;;;3.40;1.30;;;18.90;90.40;;;;;;6326647;28;20218;-61
2022/06/10 05:42:09;;;;;;;1.57;1.30;;;19.00;90.50;;;;;;6326315;28;20277;-61
2022/06/10 05:45:17;;;;;;;1.17;0.80;;;19.00;90.60;;;;;;6326290;28;20186;-62
2022/06/10 05:48:20;;;;;;;1.13;0.90;;;19.00;90.50;;;;;;6326441;28;20222;-61
2022/06/10 05:51:23;;;;;;;0.90;0.80;;;19.10;90.80;;;;;;6324956;28;20226;-61
2022/06/10 05:54:27;;;;;;;1.63;0.97;;;19.10;90.60;;;;;;6325557;28;20717;-61
2022/06/10 05:57:31;;;;;;;1.10;1.00;;;19.10;91.00;;;;;;6325580;28;20245;-62
2022/06/10 06:00:35;;;;;;;1.57;0.80;;;19.10;90.70;;;;;;6326172;28;20218;-62
2022/06/10 06:03:38;;;;;;;1.37;1.07;;;19.10;90.70;;;;;;6324303;28;20340;-62
2022/06/10 06:06:43;;;;;;;0.93;0.83;;;19.10;90.70;;;;;;6324244;28;20222;-64
2022/06/10 06:09:47;;;;;;;0.90;0.90;;;19.10;90.60;;;;;;6323704;28;20234;-62
2022/06/10 06:12:51;;;;;;;0.90;0.90;;;19.00;90.70;;;;;;6323971;28;20230;-61
2022/06/10 06:15:55;;;;;;;1.10;1.00;;;19.10;91.00;;;;;;6324334;28;20245;-63
2022/06/10 06:18:58;;;;;;;1.73;1.00;;;19.20;91.00;;;;;;6325556;28;20230;-63
2022/06/10 06:22:01;;;;;;;1.07;0.97;;;19.20;90.70;;;;;;6325192;28;20245;-63
2022/06/10 06:25:15;;;;;;;1.33;1.10;;;19.30;90.80;;;;;;6325324;28;20237;-63
2022/06/10 06:28:20;;;;;;;1.90;1.00;;;19.40;90.60;;;;;;6325257;28;20356;-63
2022/06/10 06:31:23;;;;;;;2.13;1.40;;;19.40;90.00;;;;;;6325251;28;20234;-63
2022/06/10 06:34:26;;;;;;;1.70;1.20;;;19.50;90.00;;;;;;6325200;28;20316;-63
2022/06/10 06:37:30;;;;;;;2.43;1.83;;;19.60;90.00;;;;;;6310545;28;20226;-63
2022/06/10 06:40:33;;;;;;;1.23;1.13;;;19.70;89.60;;;;;;6324821;28;20245;-63
2022/06/10 06:43:38;;;;;;;1.40;1.10;;;19.80;89.60;;;;;;6324719;28;20238;-63
2022/06/10 06:46:43;;;;;;;1.40;1.30;;;19.80;88.50;;;;;;6324909;28;20230;-63
2022/06/10 06:49:46;;;;;;;1.10;1.00;;;19.80;89.20;;;;;;6325013;28;20241;-62
2022/06/10 06:52:50;;;;;;;0.93;0.93;;;19.90;89.20;;;;;;6323752;28;20234;-62
2022/06/10 06:55:54;;;;;;;1.30;0.90;;;19.90;89.30;;;;;;6324753;28;20232;-62
2022/06/10 06:58:59;;;;;;;0.80;0.80;;;19.90;89.10;;;;;;6324811;28;20232;-62
2022/06/10 07:02:02;;;;;;;1.10;1.00;;;20.00;88.70;;;;;;6324181;28;20242;-63
2022/06/10 07:05:07;;;;;;;2.40;1.03;;;19.90;89.20;;;;;;6324169;28;20660;-63
2022/06/10 07:08:10;;;;;;;1.60;1.50;;;20.00;89.00;;;;;;6324458;28;20233;-63
2022/06/10 07:11:13;;;;;;;1.20;0.93;;;20.10;88.60;;;;;;6324718;28;20230;-63
2022/06/10 07:14:18;;;;;;;1.60;1.50;;;20.20;88.40;;;;;;6324285;28;20226;-63
2022/06/10 07:17:21;;;;;;;1.10;0.90;;;20.30;88.10;;;;;;6324493;28;20252;-63
2022/06/10 07:20:27;;;;;;;1.40;1.30;;;20.40;87.20;;;;;;6324387;28;20218;-63
2022/06/10 07:23:31;;;;;;;1.50;1.10;;;20.50;87.50;;;;;;6323919;28;20545;-63
2022/06/10 07:26:35;;;;;;;4.00;1.43;;;20.60;87.90;;;;;;6324537;28;20226;-63
2022/06/10 07:29:39;;;;;;;1.30;1.20;;;20.60;87.20;;;;;;6324606;28;20699;-63
2022/06/10 07:32:43;;;;;;;1.07;0.97;;;20.60;87.20;;;;;;6323873;28;20675;-63
2022/06/10 07:35:46;;;;;;;1.03;0.93;;;20.60;85.80;;;;;;6324043;28;20542;-63
2022/06/10 07:38:50;;;;;;;1.23;0.87;;;20.60;86.20;;;;;;6324281;28;20233;-64
2022/06/10 07:42:00;;;;;;;2.73;1.50;;;20.70;86.70;;;;;;6314231;28;20677;-64
2022/06/10 07:45:05;;;;;;;3.33;1.20;;;20.70;86.70;;;;;;6324154;28;20222;-63
2022/06/10 07:48:10;;;;;;;1.63;1.27;;;20.90;87.20;;;;;;6324084;28;20190;-63
2022/06/10 07:51:14;;;;;;;1.10;1.00;;;21.10;87.20;;;;;;6324249;28;20218;-64
2022/06/10 07:54:17;;;;;;;1.40;1.30;;;21.10;86.10;;;;;;6323243;28;20245;-63
2022/06/10 07:57:21;;;;;;;1.07;0.97;;;21.10;86.40;;;;;;6324136;28;20222;-64
2022/06/10 08:00:26;;;;;;;1.10;0.90;;;21.10;85.20;;;;;;6324002;28;20230;-63
2022/06/10 08:03:30;;;;;;;1.43;1.10;;;21.10;85.60;;;;;;6323845;28;20236;-63
2022/06/10 08:06:34;;;;;;;1.57;1.47;;;21.10;85.50;;;;;;6323634;28;20233;-62
2022/06/10 08:09:37;;;;;;;1.47;1.10;;;21.00;85.50;;;;;;6323869;28;20230;-62
2022/06/10 08:12:40;;;;;;;2.70;1.30;;;21.00;85.30;;;;;;6324144;28;20230;-62
2022/06/10 08:15:46;;;;;;;1.40;1.30;;;20.90;85.60;;;;;;6329149;28;20230;-62
2022/06/10 08:18:49;;;;;;;2.33;1.43;;;20.90;85.40;;;;;;6327953;28;20226;-62
2022/06/10 08:25:14;;;;;;;1.50;1.40;;;20.90;86.60;;;;;;6328409;28;20226;-62
2022/06/10 08:28:18;;;;;;;1.30;1.10;;;20.90;86.00;;;;;;6328202;28;20237;-62
2022/06/10 08:31:22;;;;;;;1.27;1.10;;;21.00;86.00;;;;;;6327993;28;20226;-63
2022/06/10 08:34:26;;;;;;;1.17;1.07;;;21.00;85.30;;;;;;6327709;28;20234;-63
2022/06/10 08:37:29;;;;;;;2.70;1.00;;;21.00;85.80;;;;;;6327709;28;20301;-62
2022/06/10 08:40:43;;;;;;;1.40;1.30;;;20.90;85.90;;;;;;6327839;28;20226;-63
2022/06/10 08:43:56;;;;;;;1.30;1.10;;;20.90;85.60;;;;;;6317903;28;20312;-62
2022/06/10 08:47:22;;;;;;;1.23;1.13;;;20.90;85.20;;;;;;6327332;28;20727;-62
2022/06/10 08:50:55;;;;;;;1.30;1.20;;;21.00;85.90;;;;;;6327155;28;20231;-63
2022/06/10 08:54:19;;;;;;;2.13;1.50;;;21.00;86.10;;;;;;6327044;28;20230;-62
2022/06/10 08:57:30;;;;;;;1.73;1.30;;;21.10;85.50;;;;;;6327548;28;20218;-62
2022/06/10 09:00:37;;;;;;;4.00;1.33;;;21.30;85.30;;;;;;6327532;28;20305;-63
2022/06/10 09:03:49;;;;;;;1.20;1.10;;;21.60;84.90;;;;;;6327073;28;20257;-62
2022/06/10 09:06:57;;;;;;;1.60;1.30;;;21.80;84.40;;;;;;6327336;28;20223;-62
2022/06/10 09:10:03;;;;;;;1.20;1.10;;;22.20;83.30;;;;;;6326884;28;20577;-63
2022/06/10 09:13:23;;;;;;;1.40;1.30;;;23.00;81.70;;;;;;6326796;28;20295;-62
2022/06/10 09:16:30;;;;;;;1.20;1.10;;;23.60;79.80;;;;;;6326803;28;20231;-62
2022/06/10 09:19:45;;;;;;;1.07;0.97;;;23.80;78.00;;;;;;6327105;28;20234;-62
2022/06/10 09:22:55;;;;;;;1.40;1.10;;;23.80;77.50;;;;;;6326868;28;20235;-62
2022/06/10 09:26:07;;;;;;;1.03;0.93;;;23.60;77.40;;;;;;6328706;28;20236;-63
2022/06/10 09:29:12;;;;;;;1.80;1.17;;;23.50;78.10;;;;;;6328848;28;20234;-63
2022/06/10 09:32:22;;;;;;;1.03;0.93;;;23.50;78.90;;;;;;6328429;28;20238;-63
2022/06/10 09:35:35;;;;;;;0.90;0.80;;;23.50;78.20;;;;;;6327523;28;20246;-63
2022/06/10 09:38:49;;;;;;;1.40;1.00;;;23.60;77.60;;;;;;6328010;28;20230;-64
2022/06/10 09:41:59;;;;;;;1.17;1.07;;;23.50;77.30;;;;;;6327513;28;20234;-63
2022/06/10 09:45:14;;;;;;;1.10;0.80;;;23.50;78.00;;;;;;6317921;28;20551;-64
2022/06/10 09:48:33;;;;;;;0.70;0.70;;;23.50;76.90;;;;;;6328734;28;20203;-63
2022/06/10 09:51:52;;;;;;;2.70;0.93;;;23.50;77.00;;;;;;6327264;28;20578;-63
2022/06/10 09:55:12;;;;;;;1.63;0.80;;;23.80;77.50;;;;;;6327301;28;20246;-64
2022/06/10 09:58:45;;;;;;;1.30;0.90;;;24.00;76.90;;;;;;6327028;28;20226;-63
2022/06/10 10:01:59;;;;;;;1.00;0.80;;;24.30;75.40;;;;;;6326930;28;20242;-64
2022/06/10 10:05:13;;;;;;;1.00;0.87;;;24.50;75.20;;;;;;6326274;28;20227;-64
2022/06/10 10:08:26;;;;;;;1.03;0.97;;;24.80;74.90;;;;;;6326548;28;20238;-64
2022/06/10 10:11:37;;;;;;;1.63;0.87;;;25.10;72.60;;;;;;6325964;28;20691;-64
2022/06/10 10:14:46;;;;;;;1.00;0.90;;;25.40;73.00;;;;;;6326117;28;20223;-64
2022/06/10 10:18:03;;;;;;;0.93;0.87;;;25.50;70.80;;;;;;6326171;28;20231;-64
2022/06/10 10:21:13;;;;;;;1.50;0.90;;;25.30;71.40;;;;;;6325858;28;20207;-64
2022/06/10 10:24:21;;;;;;;3.37;0.90;;;25.00;71.70;;;;;;6325957;28;20276;-64
2022/06/10 10:27:30;;;;;;;1.00;0.90;;;24.60;72.80;;;;;;6325579;28;20222;-64
2022/06/10 10:30:39;;;;;;;1.10;1.00;;;24.30;73.40;;;;;;6325838;28;20230;-64
2022/06/10 10:33:43;;;;;;;1.63;0.93;;;24.00;73.90;;;;;;6325564;28;20249;-64
2022/06/10 10:36:50;;;;;;;2.13;1.13;;;23.60;75.20;;;;;;6325458;28;20233;-64
2022/06/10 10:39:59;;;;;;;1.23;1.13;;;23.30;75.50;;;;;;6325710;28;20244;-64
2022/06/10 10:43:07;;;;;;;0.90;0.70;;;23.00;76.50;;;;;;6326504;28;20230;-64
2022/06/10 10:46:36;;;;;;;1.30;1.20;;;22.80;76.00;;;;;;6326292;28;20222;-64
2022/06/10 10:49:44;;;;;;;1.40;1.30;;;22.70;77.40;;;;;;6321225;28;20249;-64
2022/06/10 10:52:48;;;;;;;1.30;1.20;;;22.50;78.20;;;;;;6325357;28;20672;-64
2022/06/10 10:55:57;;;;;;;1.10;1.00;;;22.40;78.30;;;;;;6325796;28;20544;-64
2022/06/10 10:59:01;;;;;;;0.93;0.80;;;22.40;79.20;;;;;;6325647;28;20491;-64
2022/06/10 11:02:31;;;;;;;1.50;1.40;;;22.50;78.60;;;;;;6325688;28;20226;-64
2022/06/10 11:05:36;;;;;;;3.50;1.00;;;22.50;78.90;;;;;;6325917;28;20236;-64
2022/06/10 11:08:40;;;;;;;3.37;1.97;;;22.50;78.10;;;;;;6325616;28;20237;-64
2022/06/10 11:11:46;;;;;;;1.50;1.40;;;22.40;78.30;;;;;;6327163;28;20411;-64
2022/06/10 11:14:58;;;;;;;1.30;1.20;;;22.50;78.90;;;;;;6327622;28;20672;-64
2022/06/10 11:18:02;;;;;;;1.77;1.10;;;22.50;78.90;;;;;;6301705;28;20215;-64
2022/06/10 11:21:06;;;;;;;1.43;1.33;;;22.60;77.90;;;;;;6300854;28;20757;-63
2022/06/10 11:24:16;;;;;;;1.83;1.50;;;22.60;78.20;;;;;;6301679;28;20223;-63
2022/06/10 11:27:28;;;;;;;2.10;2.00;;;22.60;77.90;;;;;;6301080;28;20217;-63
2022/06/10 11:30:42;;;;;;;3.10;2.90;;;22.70;78.40;;;;;;6300373;28;20223;-63
2022/06/10 11:33:47;;;;;;;2.60;2.40;;;22.90;77.60;;;;;;6299454;28;20787;-63
2022/06/10 11:36:52;;;;;;;4.77;4.40;;;22.90;77.60;;;;;;6299793;28;20231;-64
2022/06/10 11:40:06;;;;;;;1.50;1.40;;;23.00;77.90;;;;;;6298560;28;20296;-63
2022/06/10 11:43:16;;;;;;;2.00;1.70;;;23.00;76.60;;;;;;6298838;28;20235;-63
2022/06/10 11:46:26;;;;;;;1.83;1.20;;;23.00;77.10;;;;;;6298447;28;20329;-63
2022/06/10 11:49:37;;;;;;;1.70;1.60;;;23.00;77.70;;;;;;6302028;28;20235;-64
2022/06/10 11:52:49;;;;;;;1.50;1.40;;;23.00;77.70;;;;;;6302909;28;20232;-63
2022/06/10 11:59:42;;;;;;;1.00;0.90;;;23.00;77.50;;;;;;6303622;28;20255;-63
2022/06/10 12:02:51;;;;;;;2.20;1.10;;;23.10;77.60;;;;;;6303605;28;20254;-63
2022/06/10 12:06:01;;;;;;;2.33;1.13;;;23.10;77.10;;;;;;6303445;28;20353;-64
2022/06/10 12:09:15;;;;;;;1.50;1.20;;;23.00;78.20;;;;;;6303531;28;20223;-63
2022/06/10 12:12:22;;;;;;;1.60;1.27;;;23.10;78.40;;;;;;6303062;28;20699;-63
2022/06/10 12:15:32;;;;;;;1.60;1.20;;;23.10;78.30;;;;;;6303026;28;20676;-63
2022/06/10 12:18:45;;;;;;;1.50;1.40;;;23.30;78.10;;;;;;6303039;28;20227;-63
2022/06/10 12:21:48;;;;;;;1.57;1.47;;;23.50;77.60;;;;;;6302158;28;20296;-63
2022/06/10 12:24:52;;;;;;;1.77;1.40;;;23.70;76.50;;;;;;6302581;28;20680;-64
2022/06/10 12:28:04;;;;;;;1.10;1.00;;;23.90;76.90;;;;;;6302678;28;20706;-63
2022/06/10 12:31:27;;;;;;;0.80;0.80;;;24.10;75.20;;;;;;6302703;28;20562;-63
2022/06/10 12:34:52;;;;;;;0.73;0.70;;;24.10;74.00;;;;;;6302381;28;20715;-63
2022/06/10 12:38:00;;;;;;;1.67;1.00;;;23.90;73.90;;;;;;6302616;28;20293;-64
2022/06/10 12:41:08;;;;;;;2.50;0.90;;;23.90;74.10;;;;;;6302702;28;20558;-64
2022/06/10 12:44:16;;;;;;;1.00;0.90;;;23.90;74.30;;;;;;6302722;28;20235;-64
2022/06/10 12:47:26;;;;;;;1.10;1.00;;;23.90;73.90;;;;;;6303146;28;20227;-65
2022/06/10 12:50:33;;;;;;;0.93;0.80;;;23.90;73.40;;;;;;6302870;28;20701;-63
2022/06/10 12:53:50;;;;;;;1.10;1.00;;;23.90;73.50;;;;;;6302744;28;20239;-63
2022/06/10 12:57:26;;;;;;;1.00;0.80;;;23.90;74.30;;;;;;6298628;28;20251;-63
2022/06/10 13:00:42;;;;;;;1.93;0.60;;;23.80;73.90;;;;;;6303097;28;20223;-63
2022/06/10 13:03:48;;;;;;;1.90;1.03;;;23.70;74.70;;;;;;6303316;28;20245;-63
2022/06/10 13:06:57;;;;;;;1.20;1.00;;;23.60;74.70;;;;;;6302723;28;20239;-63
2022/06/10 13:10:39;;;;;;;0.77;0.77;;;23.70;74.80;;;;;;6302733;28;20685;-63
2022/06/10 13:13:45;;;;;;;1.57;1.07;;;23.70;74.90;;;;;;6302495;28;20231;-63
2022/06/10 13:17:06;;;;;;;0.90;0.80;;;23.70;74.60;;;;;;6302809;28;20231;-63
2022/06/10 13:20:18;;;;;;;1.50;1.13;;;23.70;73.80;;;;;;6302437;28;20231;-63
2022/06/10 13:23:23;;;;;;;0.90;0.80;;;23.90;74.50;;;;;;6302107;28;20551;-63
2022/06/10 13:26:28;;;;;;;0.80;0.80;;;23.90;74.60;;;;;;6301919;28;20571;-63
2022/06/10 13:29:31;;;;;;;0.90;0.83;;;24.00;73.90;;;;;;6302569;28;20673;-63
2022/06/10 13:32:34;;;;;;;1.23;0.87;;;24.00;74.60;;;;;;6302604;28;20303;-63
2022/06/10 13:35:50;;;;;;;1.50;1.10;;;23.90;75.00;;;;;;6302396;28;20227;-63
2022/06/10 13:38:55;;;;;;;1.00;0.90;;;23.80;74.40;;;;;;6302413;28;20238;-63
2022/06/10 13:41:59;;;;;;;1.30;1.20;;;23.80;74.40;;;;;;6302355;28;20231;-63
2022/06/10 13:45:11;;;;;;;2.37;1.70;;;23.50;74.50;;;;;;6301873;28;20227;-64
2022/06/10 13:48:17;;;;;;;1.70;1.30;;;23.50;75.00;;;;;;6301863;28;20214;-63
2022/06/10 13:51:33;;;;;;;1.83;1.33;;;23.40;75.60;;;;;;6301411;28;20200;-63
2022/06/10 13:54:37;;;;;;;1.27;1.17;;;23.40;75.70;;;;;;6301326;28;20240;-63
2022/06/10 13:57:40;;;;;;;1.23;1.13;;;23.50;75.30;;;;;;6300777;28;20675;-63
2022/06/10 14:00:46;;;;;;;1.47;1.37;;;23.60;75.60;;;;;;6301590;28;20238;-63
2022/06/10 14:03:54;;;;;;;1.53;1.17;;;23.70;75.00;;;;;;6301417;28;20231;-63
2022/06/10 14:07:03;;;;;;;1.50;1.40;;;23.90;75.20;;;;;;6301709;28;20234;-64
2022/06/10 14:10:18;;;;;;;1.43;1.33;;;23.90;75.10;;;;;;6300832;28;20237;-63
2022/06/10 14:13:24;;;;;;;1.87;1.77;;;24.00;73.60;;;;;;6301565;28;20691;-63
2022/06/10 14:16:30;;;;;;;2.37;1.83;;;23.90;74.50;;;;;;6301316;28;20699;-63
2022/06/10 14:19:39;;;;;;;1.50;1.40;;;24.00;74.40;;;;;;6300889;28;20231;-63
2022/06/10 14:23:01;;;;;;;2.00;1.90;;;24.20;74.20;;;;;;6300745;28;20231;-63
2022/06/10 14:26:14;;;;;;;1.93;1.83;;;24.30;74.40;;;;;;6300363;28;20269;-63
2022/06/10 14:29:22;;;;;;;1.50;1.40;;;24.60;74.30;;;;;;6300617;28;20246;-63
2022/06/10 14:32:30;;;;;;;3.60;1.97;;;24.70;73.70;;;;;;6300764;28;20230;-63
2022/06/10 14:35:36;;;;;;;4.57;2.27;;;24.70;72.90;;;;;;6300641;28;20231;-63
2022/06/10 14:38:43;;;;;;;2.40;2.20;;;24.50;72.90;;;;;;6300317;28;20227;-65
2022/06/10 14:41:57;;;;;;;1.70;1.57;;;24.60;73.00;;;;;;6300205;28;20708;-64
2022/06/10 14:45:02;;;;;;;2.27;1.90;;;24.60;72.90;;;;;;6300638;28;20562;-64
2022/06/10 14:48:18;;;;;;;2.50;2.30;;;24.60;73.10;;;;;;6301112;28;20223;-64
2022/06/10 14:51:23;;;;;;;2.10;2.00;;;24.50;72.30;;;;;;6323330;28;20198;-63
2022/06/10 14:54:28;;;;;;;3.47;1.87;;;24.40;72.70;;;;;;6300342;28;20772;-63
2022/06/10 14:57:33;;;;;;;2.00;1.90;;;24.30;73.00;;;;;;6300314;28;20241;-64
2022/06/10 15:00:37;;;;;;;2.30;2.20;;;24.30;73.50;;;;;;6300439;28;20264;-64
2022/06/10 15:03:40;;;;;;;2.40;2.20;;;24.30;72.10;;;;;;6295816;28;20524;-64
2022/06/10 15:06:47;;;;;;;2.43;2.23;;;24.20;72.70;;;;;;6300799;28;20227;-64
2022/06/10 15:09:52;;;;;;;2.73;2.53;;;24.20;73.50;;;;;;6300349;28;20227;-64
2022/06/10 15:12:55;;;;;;;3.60;2.50;;;24.10;73.00;;;;;;6300083;28;20231;-63
2022/06/10 15:15:58;;;;;;;2.63;2.43;;;24.20;73.50;;;;;;6299923;28;20231;-65
2022/06/10 15:19:02;;;;;;;2.67;2.47;;;24.20;73.10;;;;;;6300377;28;20227;-64
2022/06/10 15:22:07;;;;;;;2.70;2.50;;;24.20;72.80;;;;;;6301364;28;20233;-64
2022/06/10 15:25:21;;;;;;;2.60;2.40;;;24.10;73.30;;;;;;6306229;28;20231;-64
2022/06/10 15:28:27;;;;;;;3.20;3.00;;;24.20;73.10;;;;;;6305316;28;20249;-64
2022/06/10 15:31:32;;;;;;;4.00;3.60;;;24.20;72.90;;;;;;6305342;28;20309;-64
2022/06/10 15:41:58;;;;;;;2.60;2.40;;;24.10;73.00;;;;;;6253831;28;20228;-63
2022/06/10 15:45:01;;;;;;;2.80;2.60;;;24.10;72.80;;;;;;6304331;28;20223;-66
2022/06/10 15:48:05;;;;;;;3.03;2.83;;;24.10;72.80;;;;;;6304943;28;20329;-65
2022/06/10 15:51:16;;;;;;;4.47;3.10;;;24.10;71.60;;;;;;6306235;28;20207;-65
2022/06/10 15:54:23;;;;;;;4.20;2.63;;;24.20;72.30;;;;;;6306602;28;20326;-66
2022/06/10 15:57:31;;;;;;;3.33;3.13;;;24.30;73.50;;;;;;6306703;28;20498;-66
2022/06/10 16:00:34;;;;;;;2.80;2.60;;;24.30;72.00;;;;;;6307844;28;20219;-65
2022/06/10 16:03:37;;;;;;;3.90;3.50;;;24.20;72.60;;;;;;6305684;28;20235;-66
2022/06/10 16:06:40;;;;;;;5.63;2.70;;;24.20;71.60;;;;;;6309250;28;20241;-66
2022/06/10 16:09:43;;;;;;;3.00;2.53;;;24.40;71.50;;;;;;6312912;28;20226;-68
2022/06/10 16:13:00;;;;;;;2.73;2.53;;;24.50;71.00;;;;;;6309298;28;20317;-64
2022/06/10 16:16:06;;;;;;;3.30;3.00;;;24.50;70.80;;;;;;6303761;28;20250;-63
2022/06/10 16:19:11;;;;;;;2.97;2.77;;;24.50;70.10;;;;;;6303777;28;20310;-63
2022/06/10 16:22:17;;;;;;;5.90;2.90;;;24.40;70.60;;;;;;6303299;28;20333;-63
2022/06/10 16:25:22;;;;;;;3.17;2.97;;;24.20;70.10;;;;;;6303435;28;20226;-63
2022/06/10 16:28:30;;;;;;;3.90;3.10;;;24.10;70.60;;;;;;6303290;28;20235;-64
2022/06/10 16:31:36;;;;;;;5.33;3.00;;;24.00;71.40;;;;;;6303402;28;20234;-63
2022/06/10 16:34:40;;;;;;;3.93;2.83;;;23.90;71.30;;;;;;6302146;28;20580;-63
2022/06/10 16:37:43;;;;;;;3.00;2.80;;;23.70;71.70;;;;;;6303366;28;20227;-63